Time;durP1;ratioP1;P1;durP2;ratioP2;P2;SDS_P1;SDS_P2;PMS_P1;PMS_P2;Temp;Humidity;BMP_temperature;BMP_pressure;BME280_temperature;BME280_humidity;BME280_pressure;Samples;Min_cycle;Max_cycle;Signal;HPM_P1;HPM_P2
2021/01/25 00:02:22;;;;;;;9.07;3.58;;;;;;;;;;5044125;28;20041;-62
2021/01/25 00:04:48;;;;;;;10.73;3.72;;;;;;;;;;5018621;28;20096;-62
2021/01/25 00:07:14;;;;;;;10.23;4.13;;;;;;;;;;5007817;28;20034;-62
2021/01/25 00:09:45;;;;;;;13.65;3.65;;;;;;;;;;5005341;28;20034;-61
2021/01/25 00:12:12;;;;;;;9.93;3.80;;;;;;;;;;5022234;28;20061;-62
2021/01/25 00:14:38;;;;;;;12.00;4.78;;;;;;;;;;5031706;28;20044;-62
2021/01/25 00:17:04;;;;;;;11.95;4.25;;;;;;;;;;5026798;28;20049;-61
2021/01/25 00:19:31;;;;;;;13.82;4.68;;;;;;;;;;5026961;28;20042;-62
2021/01/25 00:21:57;;;;;;;16.42;5.43;;;;;;;;;;5006960;28;20049;-62
2021/01/25 00:24:23;;;;;;;10.38;4.32;;;;;;;;;;5007779;28;20046;-61
2021/01/25 00:26:49;;;;;;;13.70;4.88;;;;;;;;;;5006049;28;20034;-62
2021/01/25 00:29:19;;;;;;;12.73;4.40;;;;;;;;;;5010405;28;20052;-62
2021/01/25 00:31:45;;;;;;;11.55;4.72;;;;;;;;;;5008115;28;20038;-62
2021/01/25 00:34:11;;;;;;;10.38;4.70;;;;;;;;;;5029206;28;20038;-62
2021/01/25 00:36:38;;;;;;;14.30;5.10;;;;;;;;;;5007501;28;20110;-61
2021/01/25 00:39:06;;;;;;;12.40;4.72;;;;;;;;;;5009541;28;20041;-62
2021/01/25 00:41:33;;;;;;;12.23;3.28;;;;;;;;;;5007127;28;20030;-62
2021/01/25 00:43:59;;;;;;;12.10;4.72;;;;;;;;;;5006704;28;20038;-62
2021/01/25 00:46:25;;;;;;;11.40;4.65;;;;;;;;;;5003322;28;20095;-62
2021/01/25 00:48:51;;;;;;;11.98;4.97;;;;;;;;;;5029443;28;20061;-62
2021/01/25 00:51:17;;;;;;;11.35;4.53;;;;;;;;;;5023786;28;20041;-62
2021/01/25 00:53:44;;;;;;;11.73;4.60;;;;;;;;;;5045191;28;20037;-62
2021/01/25 00:56:10;;;;;;;10.95;4.47;;;;;;;;;;5045617;28;20098;-62
2021/01/25 00:58:37;;;;;;;14.02;4.25;;;;;;;;;;5005044;28;20048;-62
2021/01/25 01:01:03;;;;;;;11.20;4.50;;;;;;;;;;5006405;28;20068;-62
2021/01/25 01:03:29;;;;;;;10.48;4.82;;;;;;;;;;5018477;28;20030;-63
2021/01/25 01:05:55;;;;;;;12.65;4.22;;;;;;;;;;5028355;28;20048;-62
2021/01/25 01:08:32;;;;;;;14.60;5.25;;;;;;;;;;5034575;28;20041;-62
2021/01/25 01:10:59;;;;;;;12.52;4.15;;;;;;;;;;5044673;28;20126;-62
2021/01/25 01:13:25;;;;;;;10.20;4.13;;;;;;;;;;5026740;28;20049;-61
2021/01/25 01:15:52;;;;;;;13.85;5.00;;;;;;;;;;5028923;28;20058;-61
2021/01/25 01:18:25;;;;;;;10.43;4.72;;;;;;;;;;5026580;28;20057;-62
2021/01/25 01:20:51;;;;;;;9.60;4.03;;;;;;;;;;5029385;28;20033;-61
2021/01/25 01:23:16;;;;;;;11.30;4.13;;;;;;;;;;5030723;28;20033;-62
2021/01/25 01:25:43;;;;;;;10.82;3.80;;;;;;;;;;5046360;28;20086;-61
2021/01/25 01:28:15;;;;;;;13.45;4.93;;;;;;;;;;5039698;28;20150;-62
2021/01/25 01:30:40;;;;;;;8.45;3.50;;;;;;;;;;5048383;28;20040;-61
2021/01/25 01:33:06;;;;;;;11.65;4.03;;;;;;;;;;5035404;28;20038;-61
2021/01/25 01:35:32;;;;;;;7.97;3.55;;;;;;;;;;5010326;28;20053;-61
2021/01/25 01:38:04;;;;;;;9.35;3.30;;;;;;;;;;5027118;28;20041;-61
2021/01/25 01:40:33;;;;;;;8.43;2.83;;;;;;;;;;5030708;28;20052;-62
2021/01/25 01:42:59;;;;;;;;;;;;;;;;;;5018570;28;20041;-62
2021/01/25 01:45:26;;;;;;;7.28;2.95;;;;;;;;;;5001861;28;19914;-62
2021/01/25 01:48:05;;;;;;;9.00;2.83;;;;;;;;;;5006770;28;20045;-61
2021/01/25 01:50:31;;;;;;;9.20;3.38;;;;;;;;;;5002700;28;20041;-62
2021/01/25 01:52:57;;;;;;;8.57;3.67;;;;;;;;;;5006261;28;20052;-61
2021/01/25 01:55:24;;;;;;;9.80;3.60;;;;;;;;;;5018902;28;20030;-61
2021/01/25 01:57:51;;;;;;;8.73;4.00;;;;;;;;;;5025094;28;20037;-62
2021/01/25 02:00:18;;;;;;;10.43;3.53;;;;;;;;;;5019515;28;20102;-62
2021/01/25 02:02:47;;;;;;;11.43;3.90;;;;;;;;;;5025105;28;20042;-61
2021/01/25 02:05:14;;;;;;;7.55;3.03;;;;;;;;;;5021364;28;20069;-62
2021/01/25 02:07:41;;;;;;;10.70;3.97;;;;;;;;;;5025072;28;20037;-62
2021/01/25 02:10:08;;;;;;;13.23;3.75;;;;;;;;;;5029178;28;20052;-62
2021/01/25 02:12:34;;;;;;;9.20;3.65;;;;;;;;;;5045608;28;20051;-62
2021/01/25 02:15:01;;;;;;;10.00;4.07;;;;;;;;;;5033302;28;20026;-62
2021/01/25 02:17:27;;;;;;;9.60;3.97;;;;;;;;;;5024583;28;20049;-62
2021/01/25 02:20:00;;;;;;;7.97;3.70;;;;;;;;;;5028338;28;20041;-62
2021/01/25 02:22:37;;;;;;;10.63;3.50;;;;;;;;;;5031434;28;20045;-62
2021/01/25 02:25:06;;;;;;;8.53;4.20;;;;;;;;;;5024866;28;20049;-62
2021/01/25 02:27:32;;;;;;;;;;;;;;;;;;5027941;28;20061;-62
2021/01/25 02:29:59;;;;;;;10.52;3.30;;;;;;;;;;5023717;28;19917;-62
2021/01/25 02:32:26;;;;;;;11.32;3.85;;;;;;;;;;5008386;28;20026;-62
2021/01/25 02:34:53;;;;;;;14.07;4.65;;;;;;;;;;5008718;28;20053;-62
2021/01/25 02:37:19;;;;;;;15.13;5.05;;;;;;;;;;5023616;28;20041;-62
2021/01/25 02:39:49;;;;;;;11.20;5.28;;;;;;;;;;5027517;28;20033;-62
2021/01/25 02:42:15;;;;;;;10.95;3.88;;;;;;;;;;5015976;28;20041;-62
2021/01/25 02:44:42;;;;;;;11.55;4.53;;;;;;;;;;5026632;28;20041;-62
2021/01/25 02:47:10;;;;;;;14.35;5.32;;;;;;;;;;5038322;28;20048;-62
2021/01/25 02:49:51;;;;;;;12.23;4.68;;;;;;;;;;5048371;28;20033;-62
2021/01/25 02:52:18;;;;;;;10.82;4.88;;;;;;;;;;5043249;28;20029;-62
2021/01/25 02:54:44;;;;;;;11.52;4.43;;;;;;;;;;5046885;28;20040;-62
2021/01/25 02:57:11;;;;;;;13.43;5.68;;;;;;;;;;5031760;28;20037;-61
2021/01/25 02:59:48;;;;;;;15.18;5.07;;;;;;;;;;5027211;28;20042;-61
2021/01/25 03:02:15;;;;;;;16.90;5.90;;;;;;;;;;5016052;28;20077;-62
2021/01/25 03:04:42;;;;;;;12.27;4.50;;;;;;;;;;5026446;28;20049;-62
2021/01/25 03:07:08;;;;;;;14.02;5.22;;;;;;;;;;5020313;28;20034;-62
2021/01/25 03:09:43;;;;;;;13.52;6.15;;;;;;;;;;5029501;28;20041;-61
2021/01/25 03:12:10;;;;;;;19.95;6.63;;;;;;;;;;5033731;28;20037;-62
2021/01/25 03:14:44;;;;;;;12.68;5.63;;;;;;;;;;5031128;28;20122;-61
2021/01/25 03:17:10;;;;;;;15.35;6.15;;;;;;;;;;5016726;28;20037;-61
2021/01/25 03:19:37;;;;;;;13.38;5.95;;;;;;;;;;5053831;28;20121;-61
2021/01/25 03:22:03;;;;;;;13.75;6.07;;;;;;;;;;5041404;28;20041;-62
2021/01/25 03:24:29;;;;;;;16.52;7.20;;;;;;;;;;5052094;28;20025;-61
2021/01/25 03:26:56;;;;;;;18.98;6.90;;;;;;;;;;5054874;28;20040;-62
2021/01/25 03:29:32;;;;;;;20.48;6.05;;;;;;;;;;5028681;28;20049;-61
2021/01/25 03:31:58;;;;;;;13.85;5.10;;;;;;;;;;5031853;28;20037;-62
2021/01/25 03:34:24;;;;;;;15.73;6.35;;;;;;;;;;5018152;28;20037;-62
2021/01/25 03:36:51;;;;;;;15.85;5.75;;;;;;;;;;5013756;28;20038;-61
2021/01/25 03:39:17;;;;;;;17.13;6.20;;;;;;;;;;5025968;28;20066;-60
2021/01/25 03:41:43;;;;;;;15.20;6.53;;;;;;;;;;5033261;28;20037;-61
2021/01/25 03:44:09;;;;;;;18.38;6.97;;;;;;;;;;5020367;28;20034;-61
2021/01/25 03:46:35;;;;;;;17.00;6.18;;;;;;;;;;5031212;28;20196;-61
2021/01/25 03:49:13;;;;;;;16.40;7.35;;;;;;;;;;5029976;28;20072;-61
2021/01/25 03:51:39;;;;;;;14.18;5.55;;;;;;;;;;5033712;28;20041;-60
2021/01/25 03:54:07;;;;;;;17.00;6.30;;;;;;;;;;5030359;28;20036;-61
2021/01/25 03:56:33;;;;;;;19.40;6.25;;;;;;;;;;5033670;28;20148;-61
2021/01/25 03:59:05;;;;;;;14.70;5.97;;;;;;;;;;5027129;28;20036;-61
2021/01/25 04:01:32;;;;;;;17.02;6.05;;;;;;;;;;5013573;28;20046;-60
2021/01/25 04:03:58;;;;;;;18.73;6.70;;;;;;;;;;5007146;28;20050;-61
2021/01/25 04:06:24;;;;;;;16.02;6.15;;;;;;;;;;5009807;28;20041;-61
2021/01/25 04:08:52;;;;;;;19.23;7.25;;;;;;;;;;5010937;28;20094;-61
2021/01/25 04:11:19;;;;;;;17.10;6.82;;;;;;;;;;5014119;28;20042;-60
2021/01/25 04:13:45;;;;;;;17.63;7.22;;;;;;;;;;5014031;28;20052;-61
2021/01/25 04:16:11;;;;;;;19.90;6.05;;;;;;;;;;5011141;28;20042;-61
2021/01/25 04:18:41;;;;;;;14.02;6.18;;;;;;;;;;5013174;28;20037;-61
2021/01/25 04:21:07;;;;;;;17.48;6.53;;;;;;;;;;5021142;28;20047;-61
2021/01/25 04:23:33;;;;;;;14.48;6.43;;;;;;;;;;5029719;28;20109;-60
2021/01/25 04:26:00;;;;;;;13.85;6.10;;;;;;;;;;5028941;28;20021;-60
2021/01/25 04:28:32;;;;;;;17.27;7.00;;;;;;;;;;5033202;28;20041;-60
2021/01/25 04:30:58;;;;;;;12.00;5.18;;;;;;;;;;5012337;28;20045;-60
2021/01/25 04:33:24;;;;;;;18.48;7.88;;;;;;;;;;5011073;28;20038;-60
2021/01/25 04:35:50;;;;;;;14.60;6.43;;;;;;;;;;5014874;28;20114;-61
2021/01/25 04:38:20;;;;;;;16.13;6.40;;;;;;;;;;5030458;28;20045;-61
2021/01/25 04:40:46;;;;;;;14.73;6.78;;;;;;;;;;5019134;28;20026;-61
2021/01/25 04:43:12;;;;;;;16.58;6.68;;;;;;;;;;5021577;28;20033;-60
2021/01/25 04:45:40;;;;;;;19.75;7.22;;;;;;;;;;5025137;28;20033;-60
2021/01/25 04:48:06;;;;;;;20.55;6.80;;;;;;;;;;5029061;28;20041;-61
2021/01/25 04:50:33;;;;;;;23.15;6.97;;;;;;;;;;5024129;28;20131;-60
2021/01/25 04:52:59;;;;;;;17.00;6.65;;;;;;;;;;5008840;28;20030;-60
2021/01/25 04:55:27;;;;;;;16.77;7.22;;;;;;;;;;5008001;28;20049;-61
2021/01/25 04:57:53;;;;;;;15.98;6.32;;;;;;;;;;5025392;28;20035;-60
2021/01/25 05:00:20;;;;;;;16.25;7.00;;;;;;;;;;5026153;28;20029;-60
2021/01/25 05:02:47;;;;;;;15.45;6.82;;;;;;;;;;5008146;28;20042;-61
2021/01/25 05:05:13;;;;;;;21.58;7.22;;;;;;;;;;5008150;28;20096;-61
2021/01/25 05:07:39;;;;;;;14.80;6.80;;;;;;;;;;5006076;28;20046;-60
2021/01/25 05:10:06;;;;;;;14.35;6.03;;;;;;;;;;5008502;28;20041;-60
2021/01/25 05:12:40;;;;;;;15.30;7.05;;;;;;;;;;5005267;28;20061;-60
2021/01/25 05:15:07;;;;;;;15.05;6.97;;;;;;;;;;5010510;28;20049;-60
2021/01/25 05:17:34;;;;;;;14.85;6.63;;;;;;;;;;5016219;28;20029;-60
2021/01/25 05:20:01;;;;;;;17.85;6.85;;;;;;;;;;5027405;28;20044;-60
2021/01/25 05:22:28;;;;;;;18.80;7.68;;;;;;;;;;5014404;28;20062;-60
2021/01/25 05:24:54;;;;;;;15.00;6.80;;;;;;;;;;5009026;28;20066;-60
2021/01/25 05:27:24;;;;;;;14.60;6.53;;;;;;;;;;5005103;28;20058;-60
2021/01/25 05:29:50;;;;;;;15.00;7.13;;;;;;;;;;5009073;28;20049;-60
2021/01/25 05:32:18;;;;;;;17.55;7.32;;;;;;;;;;5018224;28;20171;-61
2021/01/25 05:34:45;;;;;;;19.25;7.20;;;;;;;;;;5010457;28;20053;-60
2021/01/25 05:37:14;;;;;;;15.27;6.75;;;;;;;;;;5007707;28;20479;-60
2021/01/25 05:39:47;;;;;;;17.08;6.80;;;;;;;;;;5029114;28;20029;-61
2021/01/25 05:42:13;;;;;;;19.52;7.95;;;;;;;;;;5028553;28;20037;-60
2021/01/25 05:44:40;;;;;;;16.83;7.65;;;;;;;;;;5022922;28;20094;-60
2021/01/25 05:47:06;;;;;;;18.98;7.78;;;;;;;;;;5030856;28;20053;-61
2021/01/25 05:49:47;;;;;;;21.25;7.15;;;;;;;;;;5024245;28;20040;-61
2021/01/25 05:52:17;;;;;;;17.83;7.20;;;;;;;;;;5033168;28;20025;-60
2021/01/25 05:54:43;;;;;;;18.00;7.20;;;;;;;;;;5008597;28;20054;-60
2021/01/25 05:57:09;;;;;;;18.75;7.13;;;;;;;;;;5009473;28;20116;-61
2021/01/25 05:59:39;;;;;;;16.73;7.47;;;;;;;;;;5019266;28;20057;-60
2021/01/25 06:02:05;;;;;;;18.17;7.60;;;;;;;;;;5046552;28;20037;-60
2021/01/25 06:04:31;;;;;;;22.38;7.68;;;;;;;;;;5023195;28;20029;-60
2021/01/25 06:07:05;;;;;;;17.55;7.60;;;;;;;;;;5027647;28;20029;-60
2021/01/25 06:09:41;;;;;;;16.65;7.35;;;;;;;;;;5015604;28;20057;-61
2021/01/25 06:12:08;;;;;;;18.10;6.97;;;;;;;;;;5007435;28;20061;-60
2021/01/25 06:14:38;;;;;;;16.85;7.82;;;;;;;;;;5006529;28;20062;-60
2021/01/25 06:17:04;;;;;;;16.23;7.10;;;;;;;;;;5007954;28;20143;-60
2021/01/25 06:19:33;;;;;;;17.85;7.10;;;;;;;;;;5010133;28;20035;-61
2021/01/25 06:21:59;;;;;;;17.50;7.38;;;;;;;;;;5021196;28;20030;-60
2021/01/25 06:24:27;;;;;;;15.35;6.72;;;;;;;;;;5021584;28;20026;-61
2021/01/25 06:26:54;;;;;;;21.85;8.23;;;;;;;;;;5023987;28;20045;-60
2021/01/25 06:29:23;;;;;;;15.53;7.00;;;;;;;;;;5004722;28;20048;-61
2021/01/25 06:31:53;;;;;;;15.95;7.03;;;;;;;;;;5008007;28;20061;-61
2021/01/25 06:34:19;;;;;;;14.73;6.60;;;;;;;;;;5009368;28;20038;-60
2021/01/25 06:36:46;;;;;;;17.10;6.88;;;;;;;;;;5025722;28;20135;-60
2021/01/25 06:39:32;;;;;;;18.73;7.03;;;;;;;;;;5046393;28;20069;-60
2021/01/25 06:42:03;;;;;;;17.52;7.05;;;;;;;;;;5017913;28;20049;-61
2021/01/25 06:44:30;;;;;;;15.57;6.72;;;;;;;;;;5020133;28;20045;-60
2021/01/25 06:46:56;;;;;;;16.73;7.80;;;;;;;;;;5023364;28;20044;-61
2021/01/25 06:49:34;;;;;;;15.68;7.32;;;;;;;;;;5028835;28;20037;-60
2021/01/25 06:52:00;;;;;;;21.33;7.60;;;;;;;;;;5008098;28;20053;-60
2021/01/25 06:54:26;;;;;;;22.38;7.47;;;;;;;;;;5025588;28;20092;-61
2021/01/25 06:56:53;;;;;;;20.52;7.97;;;;;;;;;;5013014;28;20056;-60
2021/01/25 06:59:24;;;;;;;17.58;7.70;;;;;;;;;;5018198;28;20056;-60
2021/01/25 07:01:51;;;;;;;17.40;7.30;;;;;;;;;;5036031;28;20105;-60
2021/01/25 07:04:18;;;;;;;18.08;7.32;;;;;;;;;;5016423;28;20041;-60
2021/01/25 07:06:47;;;;;;;20.33;8.27;;;;;;;;;;5022944;28;20125;-60
2021/01/25 07:09:23;;;;;;;17.48;6.93;;;;;;;;;;5019228;28;20052;-60
2021/01/25 07:11:49;;;;;;;17.92;6.97;;;;;;;;;;5011188;28;20034;-59
2021/01/25 07:14:16;;;;;;;17.67;7.97;;;;;;;;;;5026009;28;20045;-62
2021/01/25 07:16:43;;;;;;;19.52;8.18;;;;;;;;;;5041174;28;20057;-60
2021/01/25 07:19:09;;;;;;;21.67;8.07;;;;;;;;;;5044133;28;20110;-60
2021/01/25 07:21:35;;;;;;;19.77;8.38;;;;;;;;;;5018419;28;20123;-60
2021/01/25 07:24:07;;;;;;;21.75;8.98;;;;;;;;;;5015333;28;20037;-60
2021/01/25 07:26:35;;;;;;;24.27;8.80;;;;;;;;;;5019561;28;20049;-60
2021/01/25 07:29:13;;;;;;;25.02;8.90;;;;;;;;;;5024779;28;20041;-61
2021/01/25 07:31:39;;;;;;;22.17;8.52;;;;;;;;;;5010169;28;20033;-60
2021/01/25 07:34:09;;;;;;;21.63;8.75;;;;;;;;;;5024002;28;20057;-61
2021/01/25 07:36:35;;;;;;;21.08;7.50;;;;;;;;;;5012372;28;20049;-61
2021/01/25 07:39:04;;;;;;;19.13;8.63;;;;;;;;;;5040942;28;20057;-60
2021/01/25 07:41:30;;;;;;;19.42;7.90;;;;;;;;;;5033288;28;20061;-60
2021/01/25 07:43:56;;;;;;;19.00;8.40;;;;;;;;;;5021784;28;20030;-61
2021/01/25 07:46:22;;;;;;;23.75;9.40;;;;;;;;;;5027396;28;20037;-60
2021/01/25 07:48:49;;;;;;;22.20;8.93;;;;;;;;;;5023764;28;20048;-61
2021/01/25 07:51:19;;;;;;;21.50;8.98;;;;;;;;;;5024471;28;20048;-61
2021/01/25 07:53:46;;;;;;;24.30;9.25;;;;;;;;;;5012261;28;20042;-59
2021/01/25 07:56:14;;;;;;;25.20;8.98;;;;;;;;;;5008602;28;20290;-60
2021/01/25 07:58:44;;;;;;;27.35;10.07;;;;;;;;;;5021334;28;20048;-61
2021/01/25 08:01:14;;;;;;;26.67;9.15;;;;;;;;;;5048205;28;20053;-61
2021/01/25 08:03:42;;;;;;;23.13;9.77;;;;;;;;;;5027900;28;20034;-60
2021/01/25 08:06:08;;;;;;;28.25;9.48;;;;;;;;;;5009133;28;20030;-61
2021/01/25 08:08:45;;;;;;;20.67;8.20;;;;;;;;;;5008185;28;20115;-60
2021/01/25 08:11:11;;;;;;;20.55;7.80;;;;;;;;;;5009668;28;20046;-60
2021/01/25 08:13:41;;;;;;;18.77;8.30;;;;;;;;;;5010231;28;20053;-59
2021/01/25 08:16:10;;;;;;;21.45;8.07;;;;;;;;;;5027290;28;20094;-61
2021/01/25 08:18:42;;;;;;;18.13;7.75;;;;;;;;;;5023454;28;20037;-60
2021/01/25 08:21:14;;;;;;;19.55;7.63;;;;;;;;;;5045623;28;20030;-61
2021/01/25 08:23:41;;;;;;;21.88;8.73;;;;;;;;;;5024306;28;22011;-61
2021/01/25 08:26:10;;;;;;;23.00;9.20;;;;;;;;;;5005712;28;20062;-61
2021/01/25 08:28:41;;;;;;;16.98;7.47;;;;;;;;;;5008052;28;20085;-59
2021/01/25 08:31:12;;;;;;;19.30;7.88;;;;;;;;;;5005200;28;20042;-60
2021/01/25 08:33:39;;;;;;;19.85;8.38;;;;;;;;;;5008617;28;20078;-61
2021/01/25 08:36:07;;;;;;;20.60;8.88;;;;;;;;;;5025323;28;20048;-59
2021/01/25 08:38:42;;;;;;;25.65;8.50;;;;;;;;;;5032771;28;20033;-62
2021/01/25 08:41:20;;;;;;;22.42;9.20;;;;;;;;;;5024711;28;20061;-61
2021/01/25 08:43:51;;;;;;;28.33;8.77;;;;;;;;;;4993490;28;20070;-61
2021/01/25 08:46:26;;;;;;;19.67;7.80;;;;;;;;;;5003853;28;20033;-61
2021/01/25 08:49:16;;;;;;;22.42;8.95;;;;;;;;;;5010968;28;20041;-61
2021/01/25 08:51:54;;;;;;;21.10;8.85;;;;;;;;;;5008966;28;20038;-60
2021/01/25 08:54:22;;;;;;;20.10;8.27;;;;;;;;;;5026751;28;20127;-60
2021/01/25 08:56:48;;;;;;;20.50;8.10;;;;;;;;;;4982848;28;20046;-60
2021/01/25 08:59:37;;;;;;;29.20;10.60;;;;;;;;;;5008236;28;20117;-61
2021/01/25 09:02:19;;;;;;;26.08;9.98;;;;;;;;;;5000259;28;20041;-61
2021/01/25 09:04:49;;;;;;;19.67;8.60;;;;;;;;;;4994259;28;20062;-60
2021/01/25 09:07:17;;;;;;;21.83;9.38;;;;;;;;;;4985168;28;20049;-61
2021/01/25 09:09:51;;;;;;;23.35;8.93;;;;;;;;;;4976803;28;20027;-61
2021/01/25 09:12:18;;;;;;;25.38;9.52;;;;;;;;;;5011033;28;20033;-60
2021/01/25 09:14:44;;;;;;;23.40;9.05;;;;;;;;;;5027862;28;20037;-60
2021/01/25 09:17:12;;;;;;;23.75;9.38;;;;;;;;;;5008812;28;20038;-60
2021/01/25 09:19:39;;;;;;;30.25;10.57;;;;;;;;;;5007410;28;20033;-61
2021/01/25 09:22:07;;;;;;;24.27;10.35;;;;;;;;;;5004391;28;20073;-60
2021/01/25 09:24:39;;;;;;;27.13;10.40;;;;;;;;;;5005297;28;20065;-60
2021/01/25 09:27:08;;;;;;;25.35;10.27;;;;;;;;;;5003090;28;20040;-60
2021/01/25 09:29:41;;;;;;;23.83;10.18;;;;;;;;;;5011969;28;20103;-61
2021/01/25 09:32:07;;;;;;;23.08;9.75;;;;;;;;;;5004075;28;20109;-60
2021/01/25 09:34:34;;;;;;;28.05;11.50;;;;;;;;;;5008629;28;20054;-61
2021/01/25 09:37:02;;;;;;;23.67;9.93;;;;;;;;;;5004429;28;20062;-60
2021/01/25 09:39:33;;;;;;;24.88;10.43;;;;;;;;;;5009090;28;20040;-61
2021/01/25 09:42:04;;;;;;;30.48;9.35;;;;;;;;;;5002700;28;20042;-60
2021/01/25 09:44:31;;;;;;;25.33;10.48;;;;;;;;;;4987188;28;20026;-61
2021/01/25 09:46:57;;;;;;;26.27;11.07;;;;;;;;;;4987003;28;20045;-60
2021/01/25 09:49:23;;;;;;;23.33;9.90;;;;;;;;;;5002940;28;20042;-61
2021/01/25 09:51:50;;;;;;;29.05;10.23;;;;;;;;;;5008541;28;20096;-61
2021/01/25 09:54:17;;;;;;;37.50;10.63;;;;;;;;;;5004526;28;20037;-61
2021/01/25 09:56:53;;;;;;;23.83;10.75;;;;;;;;;;5007768;28;20096;-60
2021/01/25 09:59:30;;;;;;;25.48;10.57;;;;;;;;;;5004469;28;20031;-61
2021/01/25 10:01:57;;;;;;;23.08;9.30;;;;;;;;;;5002398;28;20035;-60
2021/01/25 10:04:24;;;;;;;26.35;10.18;;;;;;;;;;5011153;28;20037;-60
2021/01/25 10:06:50;;;;;;;27.50;10.95;;;;;;;;;;5063518;28;20032;-61
2021/01/25 10:09:19;;;;;;;22.35;9.40;;;;;;;;;;5034343;28;20046;-61
2021/01/25 10:11:46;;;;;;;27.75;9.82;;;;;;;;;;5006767;28;20068;-60
2021/01/25 10:14:12;;;;;;;23.85;9.52;;;;;;;;;;5015030;28;20052;-61
2021/01/25 10:16:39;;;;;;;22.33;9.77;;;;;;;;;;5027400;28;20025;-61
2021/01/25 10:19:10;;;;;;;22.30;10.35;;;;;;;;;;5027814;28;20082;-60
2021/01/25 10:21:36;;;;;;;31.23;10.35;;;;;;;;;;5058632;28;20065;-60
2021/01/25 10:24:03;;;;;;;25.55;10.13;;;;;;;;;;5015753;28;20041;-60
2021/01/25 10:26:29;;;;;;;32.50;10.15;;;;;;;;;;5003598;28;20038;-61
2021/01/25 10:28:56;;;;;;;24.75;10.50;;;;;;;;;;5006116;28;20158;-60
2021/01/25 10:31:22;;;;;;;21.25;9.68;;;;;;;;;;5044417;28;20112;-61
2021/01/25 10:33:48;;;;;;;18.65;8.45;;;;;;;;;;5023598;28;20044;-61
2021/01/25 10:36:14;;;;;;;19.25;8.18;;;;;;;;;;5020892;28;20112;-60
2021/01/25 10:38:40;;;;;;;23.17;8.98;;;;;;;;;;5019983;28;20069;-60
2021/01/25 10:41:06;;;;;;;18.30;8.25;;;;;;;;;;5014369;28;20030;-60
2021/01/25 10:43:32;;;;;;;25.88;9.77;;;;;;;;;;5015943;28;20041;-61
2021/01/25 10:45:59;;;;;;;18.88;8.45;;;;;;;;;;5020921;28;20049;-60
2021/01/25 10:48:27;;;;;;;22.67;8.88;;;;;;;;;;5026021;28;20049;-59
2021/01/25 10:50:53;;;;;;;17.33;8.30;;;;;;;;;;5022493;28;20052;-61
2021/01/25 10:53:19;;;;;;;19.00;7.60;;;;;;;;;;5025583;28;20069;-59
2021/01/25 10:55:47;;;;;;;18.83;7.72;;;;;;;;;;5033057;28;20045;-60
2021/01/25 10:58:14;;;;;;;19.15;7.30;;;;;;;;;;5040691;28;20156;-60
2021/01/25 11:00:41;;;;;;;19.52;7.55;;;;;;;;;;5028680;28;20056;-60
2021/01/25 11:03:08;;;;;;;16.52;6.28;;;;;;;;;;5024840;28;20038;-60
2021/01/25 11:05:35;;;;;;;16.30;6.65;;;;;;;;;;5017912;28;20045;-60
2021/01/25 11:08:09;;;;;;;17.92;6.68;;;;;;;;;;5007286;28;20068;-60
2021/01/25 11:10:35;;;;;;;16.52;6.50;;;;;;;;;;5006135;28;20030;-60
2021/01/25 11:13:01;;;;;;;18.95;7.20;;;;;;;;;;5024661;28;20061;-60
2021/01/25 11:15:28;;;;;;;18.30;6.70;;;;;;;;;;5022162;28;20022;-62
2021/01/25 11:17:54;;;;;;;20.25;6.00;;;;;;;;;;5006286;28;20049;-62
2021/01/25 11:20:23;;;;;;;13.32;5.28;;;;;;;;;;5007601;28;20049;-60
2021/01/25 11:22:49;;;;;;;13.07;4.78;;;;;;;;;;5008283;28;20050;-60
2021/01/25 11:25:16;;;;;;;12.10;4.22;;;;;;;;;;5011932;28;20053;-60
2021/01/25 11:27:42;;;;;;;10.85;3.80;;;;;;;;;;5021330;28;20054;-60
2021/01/25 11:30:09;;;;;;;8.73;3.60;;;;;;;;;;5007988;28;20049;-61
2021/01/25 11:32:37;;;;;;;9.18;3.80;;;;;;;;;;5007357;28;20034;-61
2021/01/25 11:35:04;;;;;;;9.13;3.28;;;;;;;;;;5013665;28;20045;-61
2021/01/25 11:37:31;;;;;;;9.77;3.03;;;;;;;;;;5013549;28;20057;-61
2021/01/25 11:39:57;;;;;;;21.83;4.72;;;;;;;;;;5009848;28;20141;-61
2021/01/25 11:42:23;;;;;;;9.43;3.72;;;;;;;;;;5012314;28;20107;-61
2021/01/25 11:44:50;;;;;;;9.23;3.22;;;;;;;;;;5017999;28;20038;-62
2021/01/25 11:47:16;;;;;;;9.93;3.78;;;;;;;;;;5029583;28;20041;-61
2021/01/25 11:49:48;;;;;;;13.27;4.60;;;;;;;;;;5028036;28;20066;-61
2021/01/25 11:52:16;;;;;;;15.10;4.50;;;;;;;;;;5024614;28;20045;-61
2021/01/25 11:54:43;;;;;;;12.73;4.35;;;;;;;;;;5028709;28;20048;-62
2021/01/25 11:57:09;;;;;;;11.18;3.70;;;;;;;;;;5025356;28;20033;-61
2021/01/25 11:59:40;;;;;;;12.00;4.50;;;;;;;;;;5010067;28;20042;-61
2021/01/25 12:02:06;;;;;;;12.50;4.43;;;;;;;;;;5008306;28;20041;-61
2021/01/25 12:04:32;;;;;;;9.48;3.60;;;;;;;;;;5023651;28;20045;-62
2021/01/25 12:06:58;;;;;;;11.63;3.72;;;;;;;;;;5026655;28;20077;-61
2021/01/25 12:09:25;;;;;;;13.32;4.30;;;;;;;;;;5024177;28;20045;-61
2021/01/25 12:11:52;;;;;;;9.55;3.63;;;;;;;;;;5027973;28;20029;-61
2021/01/25 12:14:18;;;;;;;11.27;4.00;;;;;;;;;;5024808;28;20041;-62
2021/01/25 12:16:45;;;;;;;10.55;3.70;;;;;;;;;;5030176;28;20029;-61
2021/01/25 12:19:11;;;;;;;9.20;3.83;;;;;;;;;;5022754;28;20045;-61
2021/01/25 12:21:37;;;;;;;10.75;4.20;;;;;;;;;;5026402;28;20037;-62
2021/01/25 12:24:03;;;;;;;17.25;5.20;;;;;;;;;;5032590;28;20058;-61
2021/01/25 12:26:29;;;;;;;10.70;4.28;;;;;;;;;;5009606;28;20061;-61
2021/01/25 12:29:02;;;;;;;13.65;4.40;;;;;;;;;;5008251;28;20081;-62
2021/01/25 12:31:28;;;;;;;11.52;4.35;;;;;;;;;;5007645;28;20084;-62
2021/01/25 12:33:55;;;;;;;10.77;4.07;;;;;;;;;;5005867;28;20050;-61
2021/01/25 12:36:21;;;;;;;14.85;4.68;;;;;;;;;;5008649;28;20042;-62
2021/01/25 12:38:50;;;;;;;9.57;3.80;;;;;;;;;;5005918;28;20127;-62
2021/01/25 12:41:16;;;;;;;13.07;4.88;;;;;;;;;;5007381;28;20041;-61
2021/01/25 12:43:43;;;;;;;9.85;3.97;;;;;;;;;;5024467;28;20049;-62
2021/01/25 12:46:10;;;;;;;10.10;4.25;;;;;;;;;;5004920;28;20030;-62
2021/01/25 12:48:37;;;;;;;13.13;4.82;;;;;;;;;;5014908;28;20038;-62
2021/01/25 12:51:03;;;;;;;10.85;4.70;;;;;;;;;;5006514;28;20046;-62
2021/01/25 12:53:29;;;;;;;13.98;4.97;;;;;;;;;;5009711;28;20049;-62
2021/01/25 12:55:55;;;;;;;17.23;5.03;;;;;;;;;;5030129;28;20041;-62
2021/01/25 12:58:23;;;;;;;13.07;4.20;;;;;;;;;;5029023;28;20029;-62
2021/01/25 13:00:49;;;;;;;10.85;4.28;;;;;;;;;;5025139;28;20073;-62
2021/01/25 13:03:16;;;;;;;8.85;3.28;;;;;;;;;;5019755;28;20037;-62
2021/01/25 13:05:42;;;;;;;11.02;3.90;;;;;;;;;;5013797;28;20057;-62
2021/01/25 13:08:09;;;;;;;9.15;3.85;;;;;;;;;;5028103;28;20037;-62
2021/01/25 13:10:35;;;;;;;9.38;3.70;;;;;;;;;;5022850;28;20040;-62
2021/01/25 13:13:03;;;;;;;13.50;3.92;;;;;;;;;;5028553;28;20041;-62
2021/01/25 13:15:29;;;;;;;10.35;3.33;;;;;;;;;;5020004;28;20119;-62
2021/01/25 13:17:56;;;;;;;9.30;3.53;;;;;;;;;;5013759;28;20034;-62
2021/01/25 13:20:24;;;;;;;9.57;3.70;;;;;;;;;;5004474;28;20036;-62
2021/01/25 13:22:51;;;;;;;8.98;3.63;;;;;;;;;;5022918;28;20051;-62
2021/01/25 13:25:17;;;;;;;13.27;4.90;;;;;;;;;;5028860;28;20052;-62
2021/01/25 13:27:45;;;;;;;12.32;3.70;;;;;;;;;;5006522;28;20098;-62
2021/01/25 13:30:11;;;;;;;7.70;2.85;;;;;;;;;;5008289;28;20065;-62
2021/01/25 13:32:38;;;;;;;10.18;2.92;;;;;;;;;;5005232;28;20029;-62
2021/01/25 13:35:04;;;;;;;8.20;2.65;;;;;;;;;;5008312;28;20042;-62
2021/01/25 13:37:31;;;;;;;10.27;3.08;;;;;;;;;;5005124;28;20041;-62
2021/01/25 13:39:57;;;;;;;6.93;3.40;;;;;;;;;;5006035;28;20048;-61
2021/01/25 13:42:23;;;;;;;15.18;3.60;;;;;;;;;;5010134;28;20036;-62
2021/01/25 13:44:49;;;;;;;10.40;3.50;;;;;;;;;;5027479;28;20045;-61
2021/01/25 13:47:15;;;;;;;8.27;2.88;;;;;;;;;;5014921;28;20053;-62
2021/01/25 13:49:50;;;;;;;8.52;3.15;;;;;;;;;;5031349;28;20120;-62
2021/01/25 13:52:16;;;;;;;7.65;3.00;;;;;;;;;;5017651;28;20112;-62
2021/01/25 13:54:43;;;;;;;6.93;2.38;;;;;;;;;;5018236;28;20042;-61
2021/01/25 13:57:09;;;;;;;12.10;2.85;;;;;;;;;;5007636;28;20025;-62
2021/01/25 13:59:37;;;;;;;11.93;3.13;;;;;;;;;;5028902;28;20036;-62
2021/01/25 14:02:03;;;;;;;5.70;2.38;;;;;;;;;;5024295;28;20033;-62
2021/01/25 14:04:30;;;;;;;11.40;2.65;;;;;;;;;;5025239;28;20041;-62
2021/01/25 14:06:56;;;;;;;8.50;2.70;;;;;;;;;;5027485;28;20038;-61
2021/01/25 14:09:24;;;;;;;7.63;2.33;;;;;;;;;;5004505;28;20029;-62
2021/01/25 14:11:51;;;;;;;10.23;2.90;;;;;;;;;;4999815;28;20066;-62
2021/01/25 14:14:17;;;;;;;6.30;2.60;;;;;;;;;;5029758;28;20043;-62
2021/01/25 14:16:43;;;;;;;4.07;1.83;;;;;;;;;;5010388;28;20115;-62
2021/01/25 14:19:11;;;;;;;8.80;2.38;;;;;;;;;;5004981;28;20033;-62
2021/01/25 14:21:38;;;;;;;6.57;2.40;;;;;;;;;;5008447;28;20038;-61
2021/01/25 14:24:04;;;;;;;11.68;2.40;;;;;;;;;;5005434;28;20048;-61
2021/01/25 14:26:30;;;;;;;7.50;2.75;;;;;;;;;;5011189;28;20115;-62
2021/01/25 14:29:07;;;;;;;11.10;2.80;;;;;;;;;;5022339;28;20033;-62
2021/01/25 14:31:33;;;;;;;7.63;2.53;;;;;;;;;;5027890;28;20045;-62
2021/01/25 14:34:01;;;;;;;6.20;2.47;;;;;;;;;;5014727;28;20065;-61
2021/01/25 14:36:30;;;;;;;5.55;1.88;;;;;;;;;;5026170;28;20090;-61